sensor_id;sensor_type;location;lat;lon;timestamp;pressure;altitude;pressure_sealevel;temperature;humidity
55315;BME280;41619;42.816;23.226;2022-07-15T00:01:50;95597.19;;;14.14;65.54
55315;BME280;41619;42.816;23.226;2022-07-15T00:04:15;95600.34;;;14.16;65.41
55315;BME280;41619;42.816;23.226;2022-07-15T00:06:41;95596.78;;;14.16;65.38
55315;BME280;41619;42.816;23.226;2022-07-15T00:09:06;95605.44;;;14.18;65.74
55315;BME280;41619;42.816;23.226;2022-07-15T00:11:32;95605.06;;;14.19;65.81
55315;BME280;41619;42.816;23.226;2022-07-15T00:13:58;95595.63;;;14.17;65.67
55315;BME280;41619;42.816;23.226;2022-07-15T00:16:23;95599.94;;;14.18;65.77
55315;BME280;41619;42.816;23.226;2022-07-15T00:18:49;95589.72;;;14.15;65.44
55315;BME280;41619;42.816;23.226;2022-07-15T00:21:14;95590.88;;;14.14;65.45
55315;BME280;41619;42.816;23.226;2022-07-15T00:23:39;95597.13;;;14.11;65.29
55315;BME280;41619;42.816;23.226;2022-07-15T00:26:05;95594.75;;;14.09;65.54
55315;BME280;41619;42.816;23.226;2022-07-15T00:28:30;95593.56;;;14.03;65.80
55315;BME280;41619;42.816;23.226;2022-07-15T00:30:56;95597.09;;;14.04;65.95
55315;BME280;41619;42.816;23.226;2022-07-15T00:33:22;95592.38;;;14.01;65.45
55315;BME280;41619;42.816;23.226;2022-07-15T00:35:47;95596.31;;;14.03;65.90
55315;BME280;41619;42.816;23.226;2022-07-15T00:38:12;95595.13;;;14.04;65.80
55315;BME280;41619;42.816;23.226;2022-07-15T00:40:42;95599.84;;;14.00;65.58
55315;BME280;41619;42.816;23.226;2022-07-15T00:43:08;95597.06;;;13.97;65.92
55315;BME280;41619;42.816;23.226;2022-07-15T00:45:34;95584.44;;;13.92;65.92
55315;BME280;41619;42.816;23.226;2022-07-15T00:47:59;95595.44;;;13.92;65.91
55315;BME280;41619;42.816;23.226;2022-07-15T00:50:27;95586.78;;;13.90;65.87
55315;BME280;41619;42.816;23.226;2022-07-15T00:55:20;95597.75;;;13.83;66.18
55315;BME280;41619;42.816;23.226;2022-07-15T00:57:49;95595.38;;;13.81;66.27
55315;BME280;41619;42.816;23.226;2022-07-15T01:00:15;95593.78;;;13.77;66.23
55315;BME280;41619;42.816;23.226;2022-07-15T01:02:43;95586.66;;;13.72;66.27
55315;BME280;41619;42.816;23.226;2022-07-15T01:05:16;95583.09;;;13.68;66.27
55315;BME280;41619;42.816;23.226;2022-07-15T01:07:42;95579.13;;;13.62;66.97
55315;BME280;41619;42.816;23.226;2022-07-15T01:10:08;95576.72;;;13.57;66.62
55315;BME280;41619;42.816;23.226;2022-07-15T01:12:34;95574.72;;;13.50;66.67
55315;BME280;41619;42.816;23.226;2022-07-15T01:15:02;95570.72;;;13.41;67.00
55315;BME280;41619;42.816;23.226;2022-07-15T01:17:28;95568.34;;;13.39;66.83
55315;BME280;41619;42.816;23.226;2022-07-15T01:19:53;95573.00;;;13.35;66.79
55315;BME280;41619;42.816;23.226;2022-07-15T01:22:19;95566.69;;;13.31;67.13
55315;BME280;41619;42.816;23.226;2022-07-15T01:24:44;95576.13;;;13.30;67.34
55315;BME280;41619;42.816;23.226;2022-07-15T01:27:09;95570.59;;;13.26;67.09
55315;BME280;41619;42.816;23.226;2022-07-15T01:29:35;95563.06;;;13.20;67.06
55315;BME280;41619;42.816;23.226;2022-07-15T01:32:00;95568.50;;;13.16;67.11
55315;BME280;41619;42.816;23.226;2022-07-15T01:34:26;95557.84;;;13.08;67.33
55315;BME280;41619;42.816;23.226;2022-07-15T01:36:51;95571.56;;;13.08;67.59
55315;BME280;41619;42.816;23.226;2022-07-15T01:39:16;95569.97;;;13.03;67.91
55315;BME280;41619;42.816;23.226;2022-07-15T01:41:42;95572.66;;;12.99;67.48
55315;BME280;41619;42.816;23.226;2022-07-15T01:44:07;95571.84;;;12.95;67.80
55315;BME280;41619;42.816;23.226;2022-07-15T01:46:33;95567.91;;;12.93;68.11
55315;BME280;41619;42.816;23.226;2022-07-15T01:48:58;95575.34;;;12.92;67.80
55315;BME280;41619;42.816;23.226;2022-07-15T01:51:42;95578.47;;;12.91;68.05
55315;BME280;41619;42.816;23.226;2022-07-15T01:54:07;95572.53;;;12.85;68.38
55315;BME280;41619;42.816;23.226;2022-07-15T01:56:33;95572.53;;;12.85;68.23
55315;BME280;41619;42.816;23.226;2022-07-15T01:59:01;95578.03;;;12.85;68.42
55315;BME280;41619;42.816;23.226;2022-07-15T02:01:27;95573.69;;;12.84;68.18
55315;BME280;41619;42.816;23.226;2022-07-15T02:03:52;95577.97;;;12.82;67.93
55315;BME280;41619;42.816;23.226;2022-07-15T02:06:17;95577.19;;;12.81;68.51
55315;BME280;41619;42.816;23.226;2022-07-15T02:08:43;95572.06;;;12.80;67.85
55315;BME280;41619;42.816;23.226;2022-07-15T02:11:08;95574.03;;;12.79;68.36
55315;BME280;41619;42.816;23.226;2022-07-15T02:13:34;95576.72;;;12.76;68.22
55315;BME280;41619;42.816;23.226;2022-07-15T02:15:59;95577.50;;;12.72;68.67
55315;BME280;41619;42.816;23.226;2022-07-15T02:18:24;95569.59;;;12.67;68.91
55315;BME280;41619;42.816;23.226;2022-07-15T02:20:50;95566.06;;;12.67;68.63
55315;BME280;41619;42.816;23.226;2022-07-15T02:23:15;95567.25;;;12.69;68.72
55315;BME280;41619;42.816;23.226;2022-07-15T02:25:41;95565.31;;;12.70;68.56
55315;BME280;41619;42.816;23.226;2022-07-15T02:28:07;95572.75;;;12.69;68.71
55315;BME280;41619;42.816;23.226;2022-07-15T02:30:40;95569.19;;;12.65;68.85
55315;BME280;41619;42.816;23.226;2022-07-15T02:33:06;95576.19;;;12.63;68.59
55315;BME280;41619;42.816;23.226;2022-07-15T02:35:32;95568.31;;;12.58;68.78
55315;BME280;41619;42.816;23.226;2022-07-15T02:37:58;95566.16;;;12.44;68.91
55315;BME280;41619;42.816;23.226;2022-07-15T02:40:25;95569.56;;;12.30;68.64
55315;BME280;41619;42.816;23.226;2022-07-15T02:42:56;95565.47;;;12.17;68.95
55315;BME280;41619;42.816;23.226;2022-07-15T02:45:24;95567.59;;;12.01;69.37
55315;BME280;41619;42.816;23.226;2022-07-15T02:47:50;95567.09;;;11.92;69.61
55315;BME280;41619;42.816;23.226;2022-07-15T02:50:16;95579.56;;;11.89;69.50
55315;BME280;41619;42.816;23.226;2022-07-15T02:52:43;95575.63;;;11.87;69.46
55315;BME280;41619;42.816;23.226;2022-07-15T02:55:09;95579.91;;;11.84;70.19
55315;BME280;41619;42.816;23.226;2022-07-15T02:57:36;95585.25;;;11.77;69.96
55315;BME280;41619;42.816;23.226;2022-07-15T03:00:03;95590.69;;;11.73;69.99
55315;BME280;41619;42.816;23.226;2022-07-15T03:02:30;95589.03;;;11.69;70.31
55315;BME280;41619;42.816;23.226;2022-07-15T03:04:56;95580.75;;;11.65;70.18
55315;BME280;41619;42.816;23.226;2022-07-15T03:07:22;95585.50;;;11.68;70.76
55315;BME280;41619;42.816;23.226;2022-07-15T03:09:47;95574.63;;;11.72;70.24
55315;BME280;41619;42.816;23.226;2022-07-15T03:12:13;95572.22;;;11.70;70.64
55315;BME280;41619;42.816;23.226;2022-07-15T03:14:38;95584.34;;;11.69;70.22
55315;BME280;41619;42.816;23.226;2022-07-15T03:17:05;95579.66;;;11.70;70.63
55315;BME280;41619;42.816;23.226;2022-07-15T03:19:31;95583.63;;;11.72;70.67
55315;BME280;41619;42.816;23.226;2022-07-15T03:21:56;95578.19;;;11.76;70.70
55315;BME280;41619;42.816;23.226;2022-07-15T03:24:21;95574.66;;;11.75;70.86
55315;BME280;41619;42.816;23.226;2022-07-15T03:26:47;95573.09;;;11.74;70.79
55315;BME280;41619;42.816;23.226;2022-07-15T03:29:12;95571.13;;;11.75;70.68
55315;BME280;41619;42.816;23.226;2022-07-15T03:31:42;95577.69;;;11.70;70.91
55315;BME280;41619;42.816;23.226;2022-07-15T03:34:08;95577.78;;;11.74;70.84
55315;BME280;41619;42.816;23.226;2022-07-15T03:36:35;95575.81;;;11.74;71.01
55315;BME280;41619;42.816;23.226;2022-07-15T03:39:00;95580.56;;;11.77;70.75
55315;BME280;41619;42.816;23.226;2022-07-15T03:41:25;95591.53;;;11.77;70.96
55315;BME280;41619;42.816;23.226;2022-07-15T03:43:51;95589.13;;;11.72;70.91
55315;BME280;41619;42.816;23.226;2022-07-15T03:46:16;95589.03;;;11.69;71.13
55315;BME280;41619;42.816;23.226;2022-07-15T03:48:42;95588.75;;;11.74;71.07
55315;BME280;41619;42.816;23.226;2022-07-15T03:51:09;95584.91;;;11.78;71.37
55315;BME280;41619;42.816;23.226;2022-07-15T03:53:34;95583.00;;;11.82;71.06
55315;BME280;41619;42.816;23.226;2022-07-15T03:56:00;95584.72;;;11.91;71.08
55315;BME280;41619;42.816;23.226;2022-07-15T03:58:25;95587.97;;;12.00;71.47
55315;BME280;41619;42.816;23.226;2022-07-15T04:00:51;95589.59;;;12.04;71.39
55315;BME280;41619;42.816;23.226;2022-07-15T04:03:16;95584.22;;;12.11;71.18
55315;BME280;41619;42.816;23.226;2022-07-15T04:05:44;95595.69;;;12.21;71.16
55315;BME280;41619;42.816;23.226;2022-07-15T04:08:10;95595.00;;;12.27;71.05
55315;BME280;41619;42.816;23.226;2022-07-15T04:10:36;95588.81;;;12.34;71.26
55315;BME280;41619;42.816;23.226;2022-07-15T04:13:02;95589.63;;;12.38;71.19
55315;BME280;41619;42.816;23.226;2022-07-15T04:15:27;95587.72;;;12.42;71.18
55315;BME280;41619;42.816;23.226;2022-07-15T04:17:53;95585.44;;;12.48;70.78
55315;BME280;41619;42.816;23.226;2022-07-15T04:20:20;95589.03;;;12.52;70.62
55315;BME280;41619;42.816;23.226;2022-07-15T04:22:46;95585.53;;;12.55;70.79
55315;BME280;41619;42.816;23.226;2022-07-15T04:25:16;95582.44;;;12.60;71.09
55315;BME280;41619;42.816;23.226;2022-07-15T04:27:42;95586.84;;;12.64;71.01
55315;BME280;41619;42.816;23.226;2022-07-15T04:30:08;95589.66;;;12.71;70.96
55315;BME280;41619;42.816;23.226;2022-07-15T04:32:35;95583.00;;;12.76;70.85
55315;BME280;41619;42.816;23.226;2022-07-15T04:35:01;95589.75;;;12.82;70.88
55315;BME280;41619;42.816;23.226;2022-07-15T04:37:27;95586.72;;;12.91;70.63
55315;BME280;41619;42.816;23.226;2022-07-15T04:39:53;95586.78;;;12.98;70.38
55315;BME280;41619;42.816;23.226;2022-07-15T04:42:20;95589.59;;;13.05;70.32
55315;BME280;41619;42.816;23.226;2022-07-15T04:44:46;95593.22;;;13.13;70.32
55315;BME280;41619;42.816;23.226;2022-07-15T04:47:13;95593.72;;;13.22;70.21
55315;BME280;41619;42.816;23.226;2022-07-15T04:49:38;95583.94;;;13.24;70.30
55315;BME280;41619;42.816;23.226;2022-07-15T04:52:23;95595.47;;;13.41;69.73
55315;BME280;41619;42.816;23.226;2022-07-15T04:54:50;95605.34;;;13.49;69.57
55315;BME280;41619;42.816;23.226;2022-07-15T04:57:15;95595.97;;;13.57;69.55
55315;BME280;41619;42.816;23.226;2022-07-15T04:59:41;95598.03;;;13.67;69.20
55315;BME280;41619;42.816;23.226;2022-07-15T05:02:06;95598.50;;;13.76;69.27
55315;BME280;41619;42.816;23.226;2022-07-15T05:04:32;95592.28;;;13.86;68.96
55315;BME280;41619;42.816;23.226;2022-07-15T05:06:57;95596.69;;;13.98;68.70
55315;BME280;41619;42.816;23.226;2022-07-15T05:09:22;95603.41;;;14.08;68.35
55315;BME280;41619;42.816;23.226;2022-07-15T05:11:48;95603.47;;;14.18;68.47
55315;BME280;41619;42.816;23.226;2022-07-15T05:14:13;95592.13;;;14.31;68.54
55315;BME280;41619;42.816;23.226;2022-07-15T05:16:39;95596.13;;;14.40;67.67
55315;BME280;41619;42.816;23.226;2022-07-15T05:19:04;95595.81;;;14.52;67.70
55315;BME280;41619;42.816;23.226;2022-07-15T05:21:30;95584.84;;;14.63;67.37
55315;BME280;41619;42.816;23.226;2022-07-15T05:23:55;95586.84;;;14.73;67.15
55315;BME280;41619;42.816;23.226;2022-07-15T05:26:21;95587.25;;;14.82;67.01
55315;BME280;41619;42.816;23.226;2022-07-15T05:28:46;95587.69;;;14.92;66.60
55315;BME280;41619;42.816;23.226;2022-07-15T05:31:12;95588.88;;;15.01;66.14
55315;BME280;41619;42.816;23.226;2022-07-15T05:33:37;95585.75;;;15.10;66.04
55315;BME280;41619;42.816;23.226;2022-07-15T05:36:03;95590.09;;;15.18;65.91
55315;BME280;41619;42.816;23.226;2022-07-15T05:38:29;95594.84;;;15.28;65.39
55315;BME280;41619;42.816;23.226;2022-07-15T05:40:55;95588.53;;;15.38;65.14
55315;BME280;41619;42.816;23.226;2022-07-15T05:43:20;95590.94;;;15.51;65.42
55315;BME280;41619;42.816;23.226;2022-07-15T05:45:46;95587.81;;;15.63;65.41
55315;BME280;41619;42.816;23.226;2022-07-15T05:48:11;95580.69;;;15.72;65.12
55315;BME280;41619;42.816;23.226;2022-07-15T05:50:37;95584.22;;;15.80;64.67
55315;BME280;41619;42.816;23.226;2022-07-15T05:53:02;95582.66;;;15.90;64.42
55315;BME280;41619;42.816;23.226;2022-07-15T05:55:28;95587.75;;;15.98;64.35
55315;BME280;41619;42.816;23.226;2022-07-15T05:57:53;95590.53;;;16.05;64.23
55315;BME280;41619;42.816;23.226;2022-07-15T06:00:19;95591.69;;;16.15;64.05
55315;BME280;41619;42.816;23.226;2022-07-15T06:02:44;95596.78;;;16.27;63.97
55315;BME280;41619;42.816;23.226;2022-07-15T06:05:10;95590.84;;;16.36;63.72
55315;BME280;41619;42.816;23.226;2022-07-15T06:07:36;95577.03;;;16.43;63.39
55315;BME280;41619;42.816;23.226;2022-07-15T06:10:03;95582.09;;;16.59;63.08
55315;BME280;41619;42.816;23.226;2022-07-15T06:12:28;95574.97;;;16.65;62.86
55315;BME280;41619;42.816;23.226;2022-07-15T06:14:54;95575.31;;;16.81;62.92
55315;BME280;41619;42.816;23.226;2022-07-15T06:17:20;95575.28;;;16.92;62.82
55315;BME280;41619;42.816;23.226;2022-07-15T06:19:45;95575.94;;;17.14;62.23
55315;BME280;41619;42.816;23.226;2022-07-15T06:22:11;95571.47;;;17.31;61.97
55315;BME280;41619;42.816;23.226;2022-07-15T06:24:36;95576.47;;;17.46;61.51
55315;BME280;41619;42.816;23.226;2022-07-15T06:27:02;95572.03;;;17.60;61.40
55315;BME280;41619;42.816;23.226;2022-07-15T06:29:27;95569.56;;;17.76;61.38
55315;BME280;41619;42.816;23.226;2022-07-15T06:31:53;95563.53;;;17.88;61.50
55315;BME280;41619;42.816;23.226;2022-07-15T06:34:18;95566.94;;;18.03;61.06
55315;BME280;41619;42.816;23.226;2022-07-15T06:36:43;95575.94;;;18.14;60.62
55315;BME280;41619;42.816;23.226;2022-07-15T06:39:09;95570.28;;;18.25;60.29
55315;BME280;41619;42.816;23.226;2022-07-15T06:41:34;95567.47;;;18.28;59.75
55315;BME280;41619;42.816;23.226;2022-07-15T06:44:00;95571.69;;;18.40;59.66
55315;BME280;41619;42.816;23.226;2022-07-15T06:46:27;95566.41;;;18.53;59.35
55315;BME280;41619;42.816;23.226;2022-07-15T06:48:52;95566.69;;;18.65;59.12
55315;BME280;41619;42.816;23.226;2022-07-15T06:51:18;95561.75;;;18.80;58.46
55315;BME280;41619;42.816;23.226;2022-07-15T06:53:44;95569.44;;;18.96;57.79
55315;BME280;41619;42.816;23.226;2022-07-15T06:56:09;95561.41;;;19.05;57.44
55315;BME280;41619;42.816;23.226;2022-07-15T06:58:35;95558.88;;;19.14;57.75
55315;BME280;41619;42.816;23.226;2022-07-15T07:01:00;95560.63;;;19.31;57.33
55315;BME280;41619;42.816;23.226;2022-07-15T07:03:26;95556.84;;;19.45;57.29
55315;BME280;41619;42.816;23.226;2022-07-15T07:05:51;95560.59;;;19.62;56.92
55315;BME280;41619;42.816;23.226;2022-07-15T07:08:17;95557.22;;;19.74;56.53
55315;BME280;41619;42.816;23.226;2022-07-15T07:10:42;95560.22;;;19.83;55.93
55315;BME280;41619;42.816;23.226;2022-07-15T07:13:08;95552.94;;;19.93;55.50
55315;BME280;41619;42.816;23.226;2022-07-15T07:15:34;95547.16;;;20.04;55.38
55315;BME280;41619;42.816;23.226;2022-07-15T07:17:59;95549.78;;;20.14;55.08
55315;BME280;41619;42.816;23.226;2022-07-15T07:20:25;95538.81;;;20.27;55.13
55315;BME280;41619;42.816;23.226;2022-07-15T07:22:50;95547.22;;;20.47;55.10
55315;BME280;41619;42.816;23.226;2022-07-15T07:25:16;95542.06;;;20.65;54.36
55315;BME280;41619;42.816;23.226;2022-07-15T07:27:41;95540.19;;;20.78;54.19
55315;BME280;41619;42.816;23.226;2022-07-15T07:30:07;95535.47;;;20.95;53.73
55315;BME280;41619;42.816;23.226;2022-07-15T07:32:33;95537.59;;;21.07;53.13
55315;BME280;41619;42.816;23.226;2022-07-15T07:34:58;95539.34;;;21.17;52.80
55315;BME280;41619;42.816;23.226;2022-07-15T07:37:24;95542.25;;;21.30;52.75
55315;BME280;41619;42.816;23.226;2022-07-15T07:39:50;95543.59;;;21.42;52.65
55315;BME280;41619;42.816;23.226;2022-07-15T07:42:16;95544.41;;;21.59;51.99
55315;BME280;41619;42.816;23.226;2022-07-15T07:44:41;95537.41;;;21.67;52.13
55315;BME280;41619;42.816;23.226;2022-07-15T07:47:08;95531.94;;;21.80;51.66
55315;BME280;41619;42.816;23.226;2022-07-15T07:49:33;95527.91;;;21.97;51.01
55315;BME280;41619;42.816;23.226;2022-07-15T07:51:59;95535.75;;;22.18;50.81
55315;BME280;41619;42.816;23.226;2022-07-15T07:54:24;95519.75;;;22.35;50.51
55315;BME280;41619;42.816;23.226;2022-07-15T07:56:50;95525.97;;;22.55;49.99
55315;BME280;41619;42.816;23.226;2022-07-15T07:59:15;95530.78;;;22.67;49.66
55315;BME280;41619;42.816;23.226;2022-07-15T08:01:40;95529.78;;;22.90;49.52
55315;BME280;41619;42.816;23.226;2022-07-15T08:04:06;95527.13;;;23.12;49.48
55315;BME280;41619;42.816;23.226;2022-07-15T08:06:31;95522.88;;;23.33;49.34
55315;BME280;41619;42.816;23.226;2022-07-15T08:08:59;95528.16;;;23.56;49.24
55315;BME280;41619;42.816;23.226;2022-07-15T08:11:24;95521.19;;;23.74;48.70
55315;BME280;41619;42.816;23.226;2022-07-15T08:13:50;95518.72;;;23.89;48.12
55315;BME280;41619;42.816;23.226;2022-07-15T08:16:15;95519.47;;;24.02;46.91
55315;BME280;41619;42.816;23.226;2022-07-15T08:18:41;95511.28;;;24.07;46.32
55315;BME280;41619;42.816;23.226;2022-07-15T08:21:06;95522.75;;;24.22;46.48
55315;BME280;41619;42.816;23.226;2022-07-15T08:23:32;95512.44;;;24.32;46.20
55315;BME280;41619;42.816;23.226;2022-07-15T08:25:58;95504.03;;;24.44;46.17
55315;BME280;41619;42.816;23.226;2022-07-15T08:28:24;95512.22;;;24.61;45.44
55315;BME280;41619;42.816;23.226;2022-07-15T08:30:50;95505.97;;;24.79;44.89
55315;BME280;41619;42.816;23.226;2022-07-15T08:33:15;95503.06;;;24.91;44.24
55315;BME280;41619;42.816;23.226;2022-07-15T08:35:41;95502.09;;;25.07;44.21
55315;BME280;41619;42.816;23.226;2022-07-15T08:38:08;95507.16;;;25.21;44.19
55315;BME280;41619;42.816;23.226;2022-07-15T08:40:35;95501.16;;;25.32;42.88
55315;BME280;41619;42.816;23.226;2022-07-15T08:43:01;95490.91;;;25.38;42.70
55315;BME280;41619;42.816;23.226;2022-07-15T08:45:27;95491.56;;;25.51;42.31
55315;BME280;41619;42.816;23.226;2022-07-15T08:47:53;95493.22;;;25.71;42.20
55315;BME280;41619;42.816;23.226;2022-07-15T08:50:21;95497.47;;;25.93;41.33
55315;BME280;41619;42.816;23.226;2022-07-15T08:52:47;95492.03;;;26.08;41.38
55315;BME280;41619;42.816;23.226;2022-07-15T08:55:14;95495.91;;;26.20;41.46
55315;BME280;41619;42.816;23.226;2022-07-15T08:57:47;95483.94;;;26.38;40.92
55315;BME280;41619;42.816;23.226;2022-07-15T09:00:14;95487.38;;;26.60;40.48
55315;BME280;41619;42.816;23.226;2022-07-15T09:02:39;95489.41;;;26.78;40.49
55315;BME280;41619;42.816;23.226;2022-07-15T09:10:18;95482.13;;;27.23;39.35
55315;BME280;41619;42.816;23.226;2022-07-15T09:12:44;95477.69;;;27.40;38.97
55315;BME280;41619;42.816;23.226;2022-07-15T09:15:33;95478.56;;;27.46;37.33
55315;BME280;41619;42.816;23.226;2022-07-15T09:18:13;95477.28;;;27.56;37.61
55315;BME280;41619;42.816;23.226;2022-07-15T09:20:40;95474.13;;;27.72;37.74
55315;BME280;41619;42.816;23.226;2022-07-15T09:23:06;95478.66;;;27.94;37.29
55315;BME280;41619;42.816;23.226;2022-07-15T09:25:33;95470.31;;;28.23;36.18
55315;BME280;41619;42.816;23.226;2022-07-15T09:28:00;95476.72;;;28.48;35.88
55315;BME280;41619;42.816;23.226;2022-07-15T09:30:27;95478.69;;;28.71;36.00
55315;BME280;41619;42.816;23.226;2022-07-15T09:33:17;95479.41;;;28.95;35.98
55315;BME280;41619;42.816;23.226;2022-07-15T09:36:12;95466.66;;;29.30;34.68
55315;BME280;41619;42.816;23.226;2022-07-15T09:43:43;95465.38;;;29.60;31.40
55315;BME280;41619;42.816;23.226;2022-07-15T09:46:09;95457.59;;;29.55;32.32
55315;BME280;41619;42.816;23.226;2022-07-15T09:48:40;95461.56;;;29.63;32.02
55315;BME280;41619;42.816;23.226;2022-07-15T09:51:06;95459.38;;;29.73;31.83
55315;BME280;41619;42.816;23.226;2022-07-15T09:53:32;95447.72;;;29.80;31.59
55315;BME280;41619;42.816;23.226;2022-07-15T09:55:58;95452.53;;;29.94;30.16
55315;BME280;41619;42.816;23.226;2022-07-15T09:58:24;95462.09;;;30.02;30.66
55315;BME280;41619;42.816;23.226;2022-07-15T10:00:51;95452.13;;;30.22;31.17
55315;BME280;41619;42.816;23.226;2022-07-15T10:03:18;95446.50;;;30.48;30.53
55315;BME280;41619;42.816;23.226;2022-07-15T10:05:50;95450.31;;;30.65;30.25
55315;BME280;41619;42.816;23.226;2022-07-15T10:08:16;95449.88;;;30.72;30.93
55315;BME280;41619;42.816;23.226;2022-07-15T10:10:42;95445.50;;;30.71;30.23
55315;BME280;41619;42.816;23.226;2022-07-15T10:21:24;95433.09;;;30.63;28.56
55315;BME280;41619;42.816;23.226;2022-07-15T10:29:52;95430.81;;;30.67;27.95
55315;BME280;41619;42.816;23.226;2022-07-15T10:32:18;95425.81;;;30.82;27.63
55315;BME280;41619;42.816;23.226;2022-07-15T10:34:43;95430.09;;;30.98;27.57
55315;BME280;41619;42.816;23.226;2022-07-15T10:37:10;95423.75;;;31.09;26.67
55315;BME280;41619;42.816;23.226;2022-07-15T10:39:57;95422.41;;;31.04;25.68
55315;BME280;41619;42.816;23.226;2022-07-15T10:43:07;95416.69;;;30.93;27.21
55315;BME280;41619;42.816;23.226;2022-07-15T10:45:32;95414.94;;;31.01;26.25
55315;BME280;41619;42.816;23.226;2022-07-15T10:48:26;95412.50;;;31.14;26.69
55315;BME280;41619;42.816;23.226;2022-07-15T10:50:52;95411.91;;;31.36;26.71
55315;BME280;41619;42.816;23.226;2022-07-15T10:53:21;95406.00;;;31.40;25.93
55315;BME280;41619;42.816;23.226;2022-07-15T10:55:48;95407.81;;;31.37;26.30
55315;BME280;41619;42.816;23.226;2022-07-15T10:58:15;95406.88;;;31.51;26.43
55315;BME280;41619;42.816;23.226;2022-07-15T11:00:42;95399.69;;;31.56;25.99
55315;BME280;41619;42.816;23.226;2022-07-15T11:03:11;95395.63;;;31.62;26.62
55315;BME280;41619;42.816;23.226;2022-07-15T11:06:02;95400.34;;;31.77;26.54
55315;BME280;41619;42.816;23.226;2022-07-15T11:10:57;95389.59;;;31.86;26.19
55315;BME280;41619;42.816;23.226;2022-07-15T11:13:33;95390.91;;;31.91;25.77
55315;BME280;41619;42.816;23.226;2022-07-15T11:15:59;95389.88;;;31.94;25.38
55315;BME280;41619;42.816;23.226;2022-07-15T11:18:24;95379.59;;;31.91;25.13
55315;BME280;41619;42.816;23.226;2022-07-15T11:20:50;95387.88;;;32.00;25.53
55315;BME280;41619;42.816;23.226;2022-07-15T11:23:16;95393.81;;;32.13;24.95
55315;BME280;41619;42.816;23.226;2022-07-15T11:25:43;95382.75;;;32.15;25.29
55315;BME280;41619;42.816;23.226;2022-07-15T11:28:11;95385.13;;;32.22;25.52
55315;BME280;41619;42.816;23.226;2022-07-15T11:30:40;95374.84;;;32.31;25.04
55315;BME280;41619;42.816;23.226;2022-07-15T11:33:12;95384.59;;;32.24;24.49
55315;BME280;41619;42.816;23.226;2022-07-15T11:35:54;95371.41;;;31.99;24.38
55315;BME280;41619;42.816;23.226;2022-07-15T11:38:26;95369.09;;;32.03;25.01
55315;BME280;41619;42.816;23.226;2022-07-15T11:40:57;95371.16;;;32.08;25.52
55315;BME280;41619;42.816;23.226;2022-07-15T11:43:42;95373.03;;;32.22;25.24
55315;BME280;41619;42.816;23.226;2022-07-15T11:46:28;95367.38;;;32.28;24.54
55315;BME280;41619;42.816;23.226;2022-07-15T11:48:55;95368.94;;;32.29;24.51
55315;BME280;41619;42.816;23.226;2022-07-15T11:51:27;95369.66;;;32.23;24.77
55315;BME280;41619;42.816;23.226;2022-07-15T11:53:53;95365.56;;;32.24;24.60
55315;BME280;41619;42.816;23.226;2022-07-15T11:56:19;95364.31;;;32.31;24.75
55315;BME280;41619;42.816;23.226;2022-07-15T11:58:49;95368.69;;;32.27;24.32
55315;BME280;41619;42.816;23.226;2022-07-15T12:01:19;95360.66;;;32.19;24.85
55315;BME280;41619;42.816;23.226;2022-07-15T12:03:47;95363.28;;;32.29;24.82
55315;BME280;41619;42.816;23.226;2022-07-15T12:06:18;95356.09;;;32.39;25.13
55315;BME280;41619;42.816;23.226;2022-07-15T12:08:49;95363.06;;;32.49;24.90
55315;BME280;41619;42.816;23.226;2022-07-15T12:11:41;95362.31;;;32.60;24.81
55315;BME280;41619;42.816;23.226;2022-07-15T12:14:11;95359.47;;;32.60;24.96
55315;BME280;41619;42.816;23.226;2022-07-15T12:16:49;95356.66;;;32.60;25.05
55315;BME280;41619;42.816;23.226;2022-07-15T12:19:27;95351.22;;;32.67;24.76
55315;BME280;41619;42.816;23.226;2022-07-15T12:21:56;95342.47;;;32.71;25.29
55315;BME280;41619;42.816;23.226;2022-07-15T12:24:24;95341.19;;;32.77;25.39
55315;BME280;41619;42.816;23.226;2022-07-15T12:29:18;95328.09;;;32.86;24.94
55315;BME280;41619;42.816;23.226;2022-07-15T12:31:55;95334.53;;;32.86;24.84
55315;BME280;41619;42.816;23.226;2022-07-15T12:34:21;95340.19;;;32.86;25.09
55315;BME280;41619;42.816;23.226;2022-07-15T12:36:57;95330.91;;;32.86;24.82
55315;BME280;41619;42.816;23.226;2022-07-15T12:39:24;95339.16;;;32.89;24.41
55315;BME280;41619;42.816;23.226;2022-07-15T12:42:04;95334.50;;;32.69;24.39
55315;BME280;41619;42.816;23.226;2022-07-15T12:44:31;95333.44;;;32.50;24.65
55315;BME280;41619;42.816;23.226;2022-07-15T12:47:03;95335.91;;;32.14;24.52
55315;BME280;41619;42.816;23.226;2022-07-15T12:52:37;95324.78;;;31.88;24.76
55315;BME280;41619;42.816;23.226;2022-07-15T12:55:18;95346.91;;;31.90;24.79
55315;BME280;41619;42.816;23.226;2022-07-15T12:57:44;95337.13;;;31.91;25.32
55315;BME280;41619;42.816;23.226;2022-07-15T13:00:25;95338.69;;;31.98;25.42
55315;BME280;41619;42.816;23.226;2022-07-15T13:03:16;95334.88;;;32.01;24.94
55315;BME280;41619;42.816;23.226;2022-07-15T13:06:02;95325.81;;;31.97;25.12
55315;BME280;41619;42.816;23.226;2022-07-15T13:08:35;95328.13;;;31.92;24.92
55315;BME280;41619;42.816;23.226;2022-07-15T13:11:03;95326.00;;;31.76;25.86
55315;BME280;41619;42.816;23.226;2022-07-15T13:13:31;95325.97;;;31.71;25.26
55315;BME280;41619;42.816;23.226;2022-07-15T13:15:58;95324.88;;;31.57;26.03
55315;BME280;41619;42.816;23.226;2022-07-15T13:18:28;95326.13;;;31.50;26.25
55315;BME280;41619;42.816;23.226;2022-07-15T13:20:56;95323.22;;;31.39;25.97
55315;BME280;41619;42.816;23.226;2022-07-15T13:23:22;95323.47;;;31.30;25.72
55315;BME280;41619;42.816;23.226;2022-07-15T13:25:48;95329.03;;;31.19;25.78
55315;BME280;41619;42.816;23.226;2022-07-15T13:28:16;95324.72;;;30.92;26.02